sensor_id;sensor_type;location;lat;lon;timestamp;P1;durP1;ratioP1;P2;durP2;ratioP2
48596;SDS011;34382;43.160;24.148;2022-08-27T00:11:04;10.13;;;4.13;;
48596;SDS011;34382;43.160;24.148;2022-08-27T00:12:36;11.82;;;4.20;;
48596;SDS011;34382;43.160;24.148;2022-08-27T00:14:08;9.48;;;3.90;;
48596;SDS011;34382;43.160;24.148;2022-08-27T00:15:41;7.70;;;3.55;;
48596;SDS011;34382;43.160;24.148;2022-08-27T00:17:13;13.10;;;4.50;;
48596;SDS011;34382;43.160;24.148;2022-08-27T00:18:45;10.23;;;3.85;;
48596;SDS011;34382;43.160;24.148;2022-08-27T00:20:20;17.58;;;4.00;;
48596;SDS011;34382;43.160;24.148;2022-08-27T00:21:52;11.48;;;3.78;;
48596;SDS011;34382;43.160;24.148;2022-08-27T00:24:58;10.77;;;4.00;;
48596;SDS011;34382;43.160;24.148;2022-08-27T00:26:30;11.50;;;4.10;;
48596;SDS011;34382;43.160;24.148;2022-08-27T00:28:02;11.43;;;4.28;;
48596;SDS011;34382;43.160;24.148;2022-08-27T00:29:34;10.25;;;3.80;;
48596;SDS011;34382;43.160;24.148;2022-08-27T00:31:06;11.00;;;4.05;;
48596;SDS011;34382;43.160;24.148;2022-08-27T00:32:42;9.23;;;3.70;;
48596;SDS011;34382;43.160;24.148;2022-08-27T00:34:15;8.52;;;3.88;;
48596;SDS011;34382;43.160;24.148;2022-08-27T00:35:47;9.20;;;4.25;;
48596;SDS011;34382;43.160;24.148;2022-08-27T00:38:52;12.27;;;4.47;;
48596;SDS011;34382;43.160;24.148;2022-08-27T00:40:25;9.70;;;4.07;;
48596;SDS011;34382;43.160;24.148;2022-08-27T00:43:42;12.15;;;4.10;;
48596;SDS011;34382;43.160;24.148;2022-08-27T00:45:23;10.40;;;4.30;;
48596;SDS011;34382;43.160;24.148;2022-08-27T00:47:00;10.60;;;4.38;;
48596;SDS011;34382;43.160;24.148;2022-08-27T00:48:35;12.50;;;4.22;;
48596;SDS011;34382;43.160;24.148;2022-08-27T00:50:08;10.68;;;3.92;;
48596;SDS011;34382;43.160;24.148;2022-08-27T00:51:44;10.25;;;3.85;;
48596;SDS011;34382;43.160;24.148;2022-08-27T00:53:21;11.95;;;3.83;;
48596;SDS011;34382;43.160;24.148;2022-08-27T00:54:59;10.70;;;4.57;;
48596;SDS011;34382;43.160;24.148;2022-08-27T00:56:40;11.65;;;4.38;;
48596;SDS011;34382;43.160;24.148;2022-08-27T01:41:16;9.80;;;4.13;;
48596;SDS011;34382;43.160;24.148;2022-08-27T01:42:50;13.40;;;4.25;;
48596;SDS011;34382;43.160;24.148;2022-08-27T01:44:24;9.15;;;3.92;;
48596;SDS011;34382;43.160;24.148;2022-08-27T01:45:56;11.15;;;4.18;;
48596;SDS011;34382;43.160;24.148;2022-08-27T01:47:29;11.25;;;4.22;;
48596;SDS011;34382;43.160;24.148;2022-08-27T01:49:01;10.07;;;4.13;;
48596;SDS011;34382;43.160;24.148;2022-08-27T01:50:35;10.30;;;4.10;;
48596;SDS011;34382;43.160;24.148;2022-08-27T01:52:09;11.90;;;4.55;;
48596;SDS011;34382;43.160;24.148;2022-08-27T01:53:42;10.45;;;4.00;;
48596;SDS011;34382;43.160;24.148;2022-08-27T01:55:15;9.63;;;4.25;;
48596;SDS011;34382;43.160;24.148;2022-08-27T01:56:49;11.30;;;4.32;;
48596;SDS011;34382;43.160;24.148;2022-08-27T01:58:22;12.88;;;3.97;;
48596;SDS011;34382;43.160;24.148;2022-08-27T01:59:56;10.18;;;4.20;;
48596;SDS011;34382;43.160;24.148;2022-08-27T02:01:28;13.60;;;4.22;;
48596;SDS011;34382;43.160;24.148;2022-08-27T02:03:00;11.52;;;3.83;;
48596;SDS011;34382;43.160;24.148;2022-08-27T02:04:33;11.43;;;4.60;;
48596;SDS011;34382;43.160;24.148;2022-08-27T02:06:06;10.73;;;4.15;;
48596;SDS011;34382;43.160;24.148;2022-08-27T02:07:41;13.48;;;4.22;;
48596;SDS011;34382;43.160;24.148;2022-08-27T02:27:09;8.55;;;3.83;;
48596;SDS011;34382;43.160;24.148;2022-08-27T02:28:41;10.52;;;4.18;;
48596;SDS011;34382;43.160;24.148;2022-08-27T02:30:15;13.60;;;4.00;;
48596;SDS011;34382;43.160;24.148;2022-08-27T02:31:49;12.77;;;4.35;;
48596;SDS011;34382;43.160;24.148;2022-08-27T02:33:21;9.45;;;4.00;;
48596;SDS011;34382;43.160;24.148;2022-08-27T02:34:54;10.23;;;4.60;;
48596;SDS011;34382;43.160;24.148;2022-08-27T02:36:27;15.18;;;4.43;;
48596;SDS011;34382;43.160;24.148;2022-08-27T02:38:02;10.40;;;4.35;;
48596;SDS011;34382;43.160;24.148;2022-08-27T02:39:34;11.18;;;4.05;;
48596;SDS011;34382;43.160;24.148;2022-08-27T02:53:34;11.23;;;4.22;;
48596;SDS011;34382;43.160;24.148;2022-08-27T02:58:46;11.30;;;3.88;;
48596;SDS011;34382;43.160;24.148;2022-08-27T03:01:20;11.27;;;4.65;;
48596;SDS011;34382;43.160;24.148;2022-08-27T03:03:06;11.85;;;4.03;;
48596;SDS011;34382;43.160;24.148;2022-08-27T03:04:41;8.82;;;4.38;;
48596;SDS011;34382;43.160;24.148;2022-08-27T03:06:13;11.15;;;4.30;;
48596;SDS011;34382;43.160;24.148;2022-08-27T03:07:45;8.65;;;4.00;;
48596;SDS011;34382;43.160;24.148;2022-08-27T03:09:17;9.93;;;4.47;;
48596;SDS011;34382;43.160;24.148;2022-08-27T03:10:49;13.38;;;4.82;;
48596;SDS011;34382;43.160;24.148;2022-08-27T03:12:24;12.25;;;4.40;;
48596;SDS011;34382;43.160;24.148;2022-08-27T03:13:56;11.63;;;4.60;;
48596;SDS011;34382;43.160;24.148;2022-08-27T03:15:29;10.55;;;4.20;;
48596;SDS011;34382;43.160;24.148;2022-08-27T03:17:01;11.07;;;4.70;;
48596;SDS011;34382;43.160;24.148;2022-08-27T03:18:52;14.23;;;4.53;;
48596;SDS011;34382;43.160;24.148;2022-08-27T03:20:24;10.20;;;4.60;;
48596;SDS011;34382;43.160;24.148;2022-08-27T03:21:57;8.85;;;4.05;;
48596;SDS011;34382;43.160;24.148;2022-08-27T03:23:30;12.40;;;4.68;;
48596;SDS011;34382;43.160;24.148;2022-08-27T03:40:40;10.85;;;4.10;;
48596;SDS011;34382;43.160;24.148;2022-08-27T03:42:13;10.70;;;4.50;;
48596;SDS011;34382;43.160;24.148;2022-08-27T03:43:45;10.85;;;4.30;;
48596;SDS011;34382;43.160;24.148;2022-08-27T03:45:18;10.80;;;4.55;;
48596;SDS011;34382;43.160;24.148;2022-08-27T03:46:50;12.13;;;4.30;;
48596;SDS011;34382;43.160;24.148;2022-08-27T03:48:23;11.68;;;4.30;;
48596;SDS011;34382;43.160;24.148;2022-08-27T03:49:55;10.60;;;4.53;;
48596;SDS011;34382;43.160;24.148;2022-08-27T03:51:27;9.10;;;4.30;;
48596;SDS011;34382;43.160;24.148;2022-08-27T03:52:59;11.73;;;4.65;;
48596;SDS011;34382;43.160;24.148;2022-08-27T03:54:35;10.32;;;4.53;;
48596;SDS011;34382;43.160;24.148;2022-08-27T03:56:08;10.40;;;4.45;;
48596;SDS011;34382;43.160;24.148;2022-08-27T03:57:41;10.93;;;4.82;;
48596;SDS011;34382;43.160;24.148;2022-08-27T03:59:13;16.38;;;4.80;;
48596;SDS011;34382;43.160;24.148;2022-08-27T04:00:46;12.38;;;4.65;;
48596;SDS011;34382;43.160;24.148;2022-08-27T04:02:19;11.18;;;4.82;;
48596;SDS011;34382;43.160;24.148;2022-08-27T04:03:51;11.03;;;4.50;;
48596;SDS011;34382;43.160;24.148;2022-08-27T04:05:23;12.10;;;4.57;;
48596;SDS011;34382;43.160;24.148;2022-08-27T04:06:56;11.52;;;4.85;;
48596;SDS011;34382;43.160;24.148;2022-08-27T04:08:29;12.25;;;4.65;;
48596;SDS011;34382;43.160;24.148;2022-08-27T04:10:01;10.77;;;4.60;;
48596;SDS011;34382;43.160;24.148;2022-08-27T04:11:34;11.17;;;4.50;;
48596;SDS011;34382;43.160;24.148;2022-08-27T04:13:06;9.67;;;4.23;;
48596;SDS011;34382;43.160;24.148;2022-08-27T04:14:38;14.45;;;4.93;;
48596;SDS011;34382;43.160;24.148;2022-08-27T04:16:10;10.48;;;4.18;;
48596;SDS011;34382;43.160;24.148;2022-08-27T04:17:43;8.85;;;3.85;;
48596;SDS011;34382;43.160;24.148;2022-08-27T04:19:15;13.23;;;5.15;;
48596;SDS011;34382;43.160;24.148;2022-08-27T04:20:47;9.93;;;4.35;;
48596;SDS011;34382;43.160;24.148;2022-08-27T04:22:20;10.43;;;4.22;;
48596;SDS011;34382;43.160;24.148;2022-08-27T04:54:25;9.98;;;4.28;;
48596;SDS011;34382;43.160;24.148;2022-08-27T04:56:03;12.00;;;4.28;;
48596;SDS011;34382;43.160;24.148;2022-08-27T04:57:44;14.02;;;4.88;;
48596;SDS011;34382;43.160;24.148;2022-08-27T04:59:16;13.48;;;4.68;;
48596;SDS011;34382;43.160;24.148;2022-08-27T05:00:53;11.30;;;4.65;;
48596;SDS011;34382;43.160;24.148;2022-08-27T05:02:26;10.02;;;4.40;;
48596;SDS011;34382;43.160;24.148;2022-08-27T05:03:59;12.30;;;4.90;;
48596;SDS011;34382;43.160;24.148;2022-08-27T05:05:31;10.70;;;4.60;;
48596;SDS011;34382;43.160;24.148;2022-08-27T05:07:03;11.05;;;4.53;;
48596;SDS011;34382;43.160;24.148;2022-08-27T05:08:36;9.43;;;4.32;;
48596;SDS011;34382;43.160;24.148;2022-08-27T05:10:11;10.18;;;4.20;;
48596;SDS011;34382;43.160;24.148;2022-08-27T05:11:43;13.63;;;4.80;;
48596;SDS011;34382;43.160;24.148;2022-08-27T05:13:20;13.63;;;4.40;;
48596;SDS011;34382;43.160;24.148;2022-08-27T05:14:54;9.27;;;4.05;;
48596;SDS011;34382;43.160;24.148;2022-08-27T05:16:26;9.70;;;4.13;;
48596;SDS011;34382;43.160;24.148;2022-08-27T05:17:58;9.90;;;4.40;;
48596;SDS011;34382;43.160;24.148;2022-08-27T05:19:31;13.00;;;4.83;;
48596;SDS011;34382;43.160;24.148;2022-08-27T05:21:04;10.45;;;3.95;;
48596;SDS011;34382;43.160;24.148;2022-08-27T05:22:42;9.35;;;4.32;;
48596;SDS011;34382;43.160;24.148;2022-08-27T05:24:15;9.43;;;4.10;;
48596;SDS011;34382;43.160;24.148;2022-08-27T05:25:48;10.75;;;4.47;;
48596;SDS011;34382;43.160;24.148;2022-08-27T05:27:21;9.60;;;4.35;;
48596;SDS011;34382;43.160;24.148;2022-08-27T05:28:54;12.18;;;4.43;;
48596;SDS011;34382;43.160;24.148;2022-08-27T05:30:26;9.87;;;4.07;;
48596;SDS011;34382;43.160;24.148;2022-08-27T05:31:58;9.77;;;3.97;;
48596;SDS011;34382;43.160;24.148;2022-08-27T05:33:31;9.07;;;4.40;;
48596;SDS011;34382;43.160;24.148;2022-08-27T05:35:03;11.73;;;4.67;;
48596;SDS011;34382;43.160;24.148;2022-08-27T05:36:36;9.00;;;3.83;;
48596;SDS011;34382;43.160;24.148;2022-08-27T05:38:19;9.15;;;4.13;;
48596;SDS011;34382;43.160;24.148;2022-08-27T05:39:52;10.13;;;4.75;;
48596;SDS011;34382;43.160;24.148;2022-08-27T05:41:25;12.47;;;4.20;;
48596;SDS011;34382;43.160;24.148;2022-08-27T05:43:04;12.10;;;4.65;;
48596;SDS011;34382;43.160;24.148;2022-08-27T05:44:37;11.10;;;4.05;;
48596;SDS011;34382;43.160;24.148;2022-08-27T05:46:13;8.20;;;3.95;;
48596;SDS011;34382;43.160;24.148;2022-08-27T05:47:47;8.98;;;3.97;;
48596;SDS011;34382;43.160;24.148;2022-08-27T05:49:20;10.90;;;4.32;;
48596;SDS011;34382;43.160;24.148;2022-08-27T05:50:52;9.23;;;4.03;;
48596;SDS011;34382;43.160;24.148;2022-08-27T05:52:24;11.40;;;4.55;;
48596;SDS011;34382;43.160;24.148;2022-08-27T05:53:57;12.98;;;4.38;;
48596;SDS011;34382;43.160;24.148;2022-08-27T05:55:44;10.93;;;4.18;;
48596;SDS011;34382;43.160;24.148;2022-08-27T05:57:17;10.23;;;3.97;;
48596;SDS011;34382;43.160;24.148;2022-08-27T05:58:49;9.63;;;4.13;;
48596;SDS011;34382;43.160;24.148;2022-08-27T06:00:40;10.50;;;3.60;;
48596;SDS011;34382;43.160;24.148;2022-08-27T06:02:36;12.05;;;4.40;;
48596;SDS011;34382;43.160;24.148;2022-08-27T06:04:10;9.00;;;4.35;;
48596;SDS011;34382;43.160;24.148;2022-08-27T06:05:48;9.88;;;4.43;;
48596;SDS011;34382;43.160;24.148;2022-08-27T06:07:20;12.75;;;3.65;;
48596;SDS011;34382;43.160;24.148;2022-08-27T06:40:38;11.52;;;4.35;;
48596;SDS011;34382;43.160;24.148;2022-08-27T06:42:12;9.05;;;3.83;;
48596;SDS011;34382;43.160;24.148;2022-08-27T06:43:44;10.70;;;4.47;;
48596;SDS011;34382;43.160;24.148;2022-08-27T06:45:17;10.13;;;3.88;;
48596;SDS011;34382;43.160;24.148;2022-08-27T06:46:50;12.83;;;4.03;;
48596;SDS011;34382;43.160;24.148;2022-08-27T06:48:22;10.00;;;4.20;;
48596;SDS011;34382;43.160;24.148;2022-08-27T06:49:55;11.25;;;4.20;;
48596;SDS011;34382;43.160;24.148;2022-08-27T06:53:01;10.13;;;4.22;;
48596;SDS011;34382;43.160;24.148;2022-08-27T06:54:35;10.52;;;3.65;;
48596;SDS011;34382;43.160;24.148;2022-08-27T06:56:09;12.52;;;4.05;;
48596;SDS011;34382;43.160;24.148;2022-08-27T06:57:42;10.05;;;3.70;;
48596;SDS011;34382;43.160;24.148;2022-08-27T06:59:17;10.00;;;4.20;;
48596;SDS011;34382;43.160;24.148;2022-08-27T07:00:50;8.57;;;3.80;;
48596;SDS011;34382;43.160;24.148;2022-08-27T07:02:22;11.80;;;3.93;;
48596;SDS011;34382;43.160;24.148;2022-08-27T07:03:56;10.13;;;4.05;;
48596;SDS011;34382;43.160;24.148;2022-08-27T07:05:30;12.18;;;3.97;;
48596;SDS011;34382;43.160;24.148;2022-08-27T07:07:06;10.90;;;3.80;;
48596;SDS011;34382;43.160;24.148;2022-08-27T07:08:38;10.75;;;3.58;;
48596;SDS011;34382;43.160;24.148;2022-08-27T07:10:11;11.05;;;3.70;;
48596;SDS011;34382;43.160;24.148;2022-08-27T07:11:44;7.95;;;3.40;;
48596;SDS011;34382;43.160;24.148;2022-08-27T07:13:16;11.80;;;4.13;;
48596;SDS011;34382;43.160;24.148;2022-08-27T07:14:48;8.10;;;3.47;;
48596;SDS011;34382;43.160;24.148;2022-08-27T07:16:22;11.30;;;3.42;;
48596;SDS011;34382;43.160;24.148;2022-08-27T07:17:55;12.15;;;3.92;;
48596;SDS011;34382;43.160;24.148;2022-08-27T07:19:27;11.27;;;3.38;;
48596;SDS011;34382;43.160;24.148;2022-08-27T07:21:02;9.40;;;3.65;;
48596;SDS011;34382;43.160;24.148;2022-08-27T07:22:40;13.18;;;3.85;;
48596;SDS011;34382;43.160;24.148;2022-08-27T08:09:40;9.55;;;2.90;;
48596;SDS011;34382;43.160;24.148;2022-08-27T08:11:14;10.05;;;3.25;;
48596;SDS011;34382;43.160;24.148;2022-08-27T08:12:47;11.18;;;3.35;;
48596;SDS011;34382;43.160;24.148;2022-08-27T08:14:20;9.48;;;3.22;;
48596;SDS011;34382;43.160;24.148;2022-08-27T08:15:52;11.82;;;3.45;;
48596;SDS011;34382;43.160;24.148;2022-08-27T08:17:25;9.50;;;3.47;;
48596;SDS011;34382;43.160;24.148;2022-08-27T08:18:57;15.38;;;3.67;;
48596;SDS011;34382;43.160;24.148;2022-08-27T08:20:33;16.52;;;3.50;;
48596;SDS011;34382;43.160;24.148;2022-08-27T08:22:25;13.02;;;3.40;;
48596;SDS011;34382;43.160;24.148;2022-08-27T08:23:58;11.55;;;3.65;;
48596;SDS011;34382;43.160;24.148;2022-08-27T08:25:31;10.63;;;3.65;;
48596;SDS011;34382;43.160;24.148;2022-08-27T08:41:59;8.50;;;2.83;;
48596;SDS011;34382;43.160;24.148;2022-08-27T09:10:31;11.07;;;3.47;;
48596;SDS011;34382;43.160;24.148;2022-08-27T09:12:13;9.48;;;3.08;;
48596;SDS011;34382;43.160;24.148;2022-08-27T09:15:22;10.52;;;3.53;;
48596;SDS011;34382;43.160;24.148;2022-08-27T09:16:59;8.93;;;3.35;;
48596;SDS011;34382;43.160;24.148;2022-08-27T09:18:36;8.98;;;3.65;;
48596;SDS011;34382;43.160;24.148;2022-08-27T09:20:11;10.98;;;3.20;;
48596;SDS011;34382;43.160;24.148;2022-08-27T09:23:19;8.68;;;3.22;;
48596;SDS011;34382;43.160;24.148;2022-08-27T09:26:42;10.15;;;3.08;;
48596;SDS011;34382;43.160;24.148;2022-08-27T09:30:22;8.57;;;3.30;;
48596;SDS011;34382;43.160;24.148;2022-08-27T09:32:05;11.82;;;3.33;;
48596;SDS011;34382;43.160;24.148;2022-08-27T09:33:39;10.40;;;3.42;;
48596;SDS011;34382;43.160;24.148;2022-08-27T09:35:27;9.50;;;3.30;;
48596;SDS011;34382;43.160;24.148;2022-08-27T09:37:15;10.00;;;3.15;;
48596;SDS011;34382;43.160;24.148;2022-08-27T09:38:56;11.95;;;3.47;;
48596;SDS011;34382;43.160;24.148;2022-08-27T09:42:46;9.82;;;3.13;;
48596;SDS011;34382;43.160;24.148;2022-08-27T09:44:23;8.90;;;3.40;;
48596;SDS011;34382;43.160;24.148;2022-08-27T09:45:59;12.43;;;3.40;;
48596;SDS011;34382;43.160;24.148;2022-08-27T09:47:43;9.60;;;3.40;;
48596;SDS011;34382;43.160;24.148;2022-08-27T09:49:17;9.95;;;3.25;;
48596;SDS011;34382;43.160;24.148;2022-08-27T09:52:31;9.45;;;3.08;;
48596;SDS011;34382;43.160;24.148;2022-08-27T09:54:08;9.57;;;3.50;;
48596;SDS011;34382;43.160;24.148;2022-08-27T09:57:25;12.65;;;3.70;;
48596;SDS011;34382;43.160;24.148;2022-08-27T09:59:07;8.60;;;3.40;;
48596;SDS011;34382;43.160;24.148;2022-08-27T10:00:47;10.10;;;3.78;;
48596;SDS011;34382;43.160;24.148;2022-08-27T10:02:22;9.45;;;3.08;;
48596;SDS011;34382;43.160;24.148;2022-08-27T10:05:48;12.60;;;3.38;;
48596;SDS011;34382;43.160;24.148;2022-08-27T10:07:42;11.48;;;3.28;;
48596;SDS011;34382;43.160;24.148;2022-08-27T10:09:29;9.50;;;3.42;;
48596;SDS011;34382;43.160;24.148;2022-08-27T10:11:06;10.45;;;3.50;;
48596;SDS011;34382;43.160;24.148;2022-08-27T10:12:56;7.53;;;3.10;;
48596;SDS011;34382;43.160;24.148;2022-08-27T10:14:41;12.88;;;3.78;;
48596;SDS011;34382;43.160;24.148;2022-08-27T10:16:35;10.32;;;3.08;;
48596;SDS011;34382;43.160;24.148;2022-08-27T10:18:36;9.38;;;3.72;;
48596;SDS011;34382;43.160;24.148;2022-08-27T10:20:39;8.57;;;3.00;;
48596;SDS011;34382;43.160;24.148;2022-08-27T10:26:11;12.27;;;3.35;;
48596;SDS011;34382;43.160;24.148;2022-08-27T10:29:50;10.05;;;2.85;;
48596;SDS011;34382;43.160;24.148;2022-08-27T10:55:02;12.52;;;3.58;;
48596;SDS011;34382;43.160;24.148;2022-08-27T10:56:49;15.63;;;3.25;;
48596;SDS011;34382;43.160;24.148;2022-08-27T11:00:44;13.05;;;3.22;;
48596;SDS011;34382;43.160;24.148;2022-08-27T11:02:54;22.08;;;3.50;;
48596;SDS011;34382;43.160;24.148;2022-08-27T11:04:42;12.00;;;3.58;;
48596;SDS011;34382;43.160;24.148;2022-08-27T11:06:31;13.30;;;3.50;;
48596;SDS011;34382;43.160;24.148;2022-08-27T11:08:27;10.55;;;3.33;;
48596;SDS011;34382;43.160;24.148;2022-08-27T11:10:13;14.32;;;3.75;;
48596;SDS011;34382;43.160;24.148;2022-08-27T12:26:00;13.38;;;3.33;;
48596;SDS011;34382;43.160;24.148;2022-08-27T12:41:11;10.00;;;3.53;;
48596;SDS011;34382;43.160;24.148;2022-08-27T12:42:48;9.10;;;3.20;;
48596;SDS011;34382;43.160;24.148;2022-08-27T12:44:25;10.27;;;3.28;;
48596;SDS011;34382;43.160;24.148;2022-08-27T12:47:38;11.57;;;3.30;;
48596;SDS011;34382;43.160;24.148;2022-08-27T12:49:22;10.13;;;3.78;;
48596;SDS011;34382;43.160;24.148;2022-08-27T12:51:22;9.57;;;3.28;;
48596;SDS011;34382;43.160;24.148;2022-08-27T13:25:17;9.55;;;3.05;;
48596;SDS011;34382;43.160;24.148;2022-08-27T13:26:58;10.52;;;3.42;;
48596;SDS011;34382;43.160;24.148;2022-08-27T13:28:31;13.20;;;3.67;;
48596;SDS011;34382;43.160;24.148;2022-08-27T13:30:05;7.25;;;2.90;;
48596;SDS011;34382;43.160;24.148;2022-08-27T13:31:42;11.55;;;3.15;;
48596;SDS011;34382;43.160;24.148;2022-08-27T13:33:20;12.55;;;3.40;;
48596;SDS011;34382;43.160;24.148;2022-08-27T13:34:54;12.35;;;3.15;;
48596;SDS011;34382;43.160;24.148;2022-08-27T13:36:30;11.13;;;3.33;;
48596;SDS011;34382;43.160;24.148;2022-08-27T13:38:04;8.60;;;3.00;;
48596;SDS011;34382;43.160;24.148;2022-08-27T13:41:27;9.23;;;3.05;;
48596;SDS011;34382;43.160;24.148;2022-08-27T13:43:10;11.68;;;3.08;;
48596;SDS011;34382;43.160;24.148;2022-08-27T13:44:43;11.70;;;2.70;;
48596;SDS011;34382;43.160;24.148;2022-08-27T13:46:23;9.63;;;3.20;;
48596;SDS011;34382;43.160;24.148;2022-08-27T13:47:58;10.25;;;3.25;;
48596;SDS011;34382;43.160;24.148;2022-08-27T13:49:31;13.25;;;3.17;;
48596;SDS011;34382;43.160;24.148;2022-08-27T13:51:11;7.93;;;2.78;;
48596;SDS011;34382;43.160;24.148;2022-08-27T13:52:44;8.68;;;3.13;;
48596;SDS011;34382;43.160;24.148;2022-08-27T13:54:36;9.77;;;3.40;;
48596;SDS011;34382;43.160;24.148;2022-08-27T13:56:09;8.80;;;2.90;;
48596;SDS011;34382;43.160;24.148;2022-08-27T14:00:50;9.05;;;3.15;;
48596;SDS011;34382;43.160;24.148;2022-08-27T14:02:25;8.10;;;3.03;;
48596;SDS011;34382;43.160;24.148;2022-08-27T14:04:00;11.32;;;2.80;;
48596;SDS011;34382;43.160;24.148;2022-08-27T14:05:45;8.63;;;2.80;;
48596;SDS011;34382;43.160;24.148;2022-08-27T14:10:38;10.75;;;3.42;;
48596;SDS011;34382;43.160;24.148;2022-08-27T14:12:17;9.90;;;3.22;;
48596;SDS011;34382;43.160;24.148;2022-08-27T14:14:07;12.20;;;3.30;;
48596;SDS011;34382;43.160;24.148;2022-08-27T14:15:41;11.88;;;3.47;;
48596;SDS011;34382;43.160;24.148;2022-08-27T14:17:23;8.93;;;3.22;;
48596;SDS011;34382;43.160;24.148;2022-08-27T14:19:07;10.43;;;3.38;;
48596;SDS011;34382;43.160;24.148;2022-08-27T14:20:42;10.73;;;2.90;;
48596;SDS011;34382;43.160;24.148;2022-08-27T14:22:15;10.70;;;3.28;;
48596;SDS011;34382;43.160;24.148;2022-08-27T14:23:48;13.73;;;3.10;;
48596;SDS011;34382;43.160;24.148;2022-08-27T14:25:21;10.88;;;3.47;;
48596;SDS011;34382;43.160;24.148;2022-08-27T14:26:54;12.38;;;3.08;;
48596;SDS011;34382;43.160;24.148;2022-08-27T14:28:33;7.75;;;2.70;;
48596;SDS011;34382;43.160;24.148;2022-08-27T14:40:35;9.77;;;3.00;;
48596;SDS011;34382;43.160;24.148;2022-08-27T14:42:07;8.90;;;3.30;;
48596;SDS011;34382;43.160;24.148;2022-08-27T14:43:41;10.07;;;3.20;;
48596;SDS011;34382;43.160;24.148;2022-08-27T14:45:19;9.52;;;3.17;;
48596;SDS011;34382;43.160;24.148;2022-08-27T14:46:54;11.20;;;3.40;;
48596;SDS011;34382;43.160;24.148;2022-08-27T14:48:27;12.48;;;3.30;;
48596;SDS011;34382;43.160;24.148;2022-08-27T14:50:02;9.40;;;3.92;;
48596;SDS011;34382;43.160;24.148;2022-08-27T14:51:35;9.43;;;2.92;;
48596;SDS011;34382;43.160;24.148;2022-08-27T14:53:08;8.82;;;3.00;;
48596;SDS011;34382;43.160;24.148;2022-08-27T14:54:41;13.20;;;3.10;;
48596;SDS011;34382;43.160;24.148;2022-08-27T14:56:14;8.10;;;2.95;;
48596;SDS011;34382;43.160;24.148;2022-08-27T14:57:47;12.10;;;3.25;;
48596;SDS011;34382;43.160;24.148;2022-08-27T14:59:20;9.75;;;3.08;;
48596;SDS011;34382;43.160;24.148;2022-08-27T15:00:55;10.65;;;3.55;;
48596;SDS011;34382;43.160;24.148;2022-08-27T15:11:17;9.50;;;3.50;;
48596;SDS011;34382;43.160;24.148;2022-08-27T15:12:51;8.77;;;3.28;;
48596;SDS011;34382;43.160;24.148;2022-08-27T15:14:31;8.48;;;2.80;;
48596;SDS011;34382;43.160;24.148;2022-08-27T15:16:05;9.63;;;3.35;;
48596;SDS011;34382;43.160;24.148;2022-08-27T15:17:38;9.60;;;3.15;;
48596;SDS011;34382;43.160;24.148;2022-08-27T15:19:11;8.35;;;3.20;;
48596;SDS011;34382;43.160;24.148;2022-08-27T15:20:46;9.68;;;3.28;;
48596;SDS011;34382;43.160;24.148;2022-08-27T15:22:22;11.45;;;2.95;;
48596;SDS011;34382;43.160;24.148;2022-08-27T15:39:39;10.35;;;3.00;;
48596;SDS011;34382;43.160;24.148;2022-08-27T15:41:11;7.30;;;3.10;;
48596;SDS011;34382;43.160;24.148;2022-08-27T15:42:44;8.10;;;3.17;;
48596;SDS011;34382;43.160;24.148;2022-08-27T15:44:18;11.20;;;3.63;;
48596;SDS011;34382;43.160;24.148;2022-08-27T15:45:52;9.07;;;3.42;;
48596;SDS011;34382;43.160;24.148;2022-08-27T15:47:24;10.50;;;3.42;;
48596;SDS011;34382;43.160;24.148;2022-08-27T15:48:57;10.02;;;3.03;;
48596;SDS011;34382;43.160;24.148;2022-08-27T15:50:30;7.85;;;3.00;;
48596;SDS011;34382;43.160;24.148;2022-08-27T15:52:03;10.00;;;3.30;;
48596;SDS011;34382;43.160;24.148;2022-08-27T15:55:13;10.23;;;3.58;;
48596;SDS011;34382;43.160;24.148;2022-08-27T15:56:51;10.43;;;3.13;;
48596;SDS011;34382;43.160;24.148;2022-08-27T15:58:24;11.68;;;3.42;;
48596;SDS011;34382;43.160;24.148;2022-08-27T15:59:59;10.48;;;3.67;;
48596;SDS011;34382;43.160;24.148;2022-08-27T16:01:32;8.65;;;3.28;;
48596;SDS011;34382;43.160;24.148;2022-08-27T16:03:08;10.35;;;3.30;;
48596;SDS011;34382;43.160;24.148;2022-08-27T16:04:42;7.15;;;3.13;;
48596;SDS011;34382;43.160;24.148;2022-08-27T16:06:19;11.95;;;3.80;;
48596;SDS011;34382;43.160;24.148;2022-08-27T16:07:51;9.57;;;3.13;;
48596;SDS011;34382;43.160;24.148;2022-08-27T16:09:24;8.13;;;3.55;;
48596;SDS011;34382;43.160;24.148;2022-08-27T17:15:13;9.30;;;4.22;;
48596;SDS011;34382;43.160;24.148;2022-08-27T18:36:28;11.18;;;3.97;;
48596;SDS011;34382;43.160;24.148;2022-08-27T18:38:02;13.27;;;4.70;;
48596;SDS011;34382;43.160;24.148;2022-08-27T18:39:34;9.88;;;4.18;;
48596;SDS011;34382;43.160;24.148;2022-08-27T18:41:10;14.40;;;5.03;;
48596;SDS011;34382;43.160;24.148;2022-08-27T18:42:43;9.88;;;4.38;;
48596;SDS011;34382;43.160;24.148;2022-08-27T18:44:16;12.90;;;4.97;;
48596;SDS011;34382;43.160;24.148;2022-08-27T18:45:48;12.75;;;5.00;;
48596;SDS011;34382;43.160;24.148;2022-08-27T18:47:21;11.98;;;4.97;;
48596;SDS011;34382;43.160;24.148;2022-08-27T18:48:58;14.02;;;4.82;;
48596;SDS011;34382;43.160;24.148;2022-08-27T18:50:31;10.23;;;4.40;;
48596;SDS011;34382;43.160;24.148;2022-08-27T18:52:05;11.00;;;4.20;;
48596;SDS011;34382;43.160;24.148;2022-08-27T18:53:39;10.55;;;4.43;;
48596;SDS011;34382;43.160;24.148;2022-08-27T18:55:13;12.13;;;4.13;;
48596;SDS011;34382;43.160;24.148;2022-08-27T18:56:48;10.60;;;4.57;;
48596;SDS011;34382;43.160;24.148;2022-08-27T18:58:21;11.95;;;4.68;;
48596;SDS011;34382;43.160;24.148;2022-08-27T18:59:54;8.93;;;4.45;;
48596;SDS011;34382;43.160;24.148;2022-08-27T19:01:26;12.87;;;5.03;;
48596;SDS011;34382;43.160;24.148;2022-08-27T19:02:59;9.55;;;4.45;;
48596;SDS011;34382;43.160;24.148;2022-08-27T19:06:04;14.30;;;5.35;;
48596;SDS011;34382;43.160;24.148;2022-08-27T19:07:40;11.27;;;4.47;;
48596;SDS011;34382;43.160;24.148;2022-08-27T19:09:12;10.33;;;4.47;;
48596;SDS011;34382;43.160;24.148;2022-08-27T19:10:46;10.85;;;4.50;;
48596;SDS011;34382;43.160;24.148;2022-08-27T19:12:19;12.17;;;4.73;;
48596;SDS011;34382;43.160;24.148;2022-08-27T19:13:51;9.73;;;4.28;;
48596;SDS011;34382;43.160;24.148;2022-08-27T19:15:24;11.05;;;4.82;;
48596;SDS011;34382;43.160;24.148;2022-08-27T19:16:56;9.68;;;4.32;;
48596;SDS011;34382;43.160;24.148;2022-08-27T19:18:30;12.43;;;4.75;;
48596;SDS011;34382;43.160;24.148;2022-08-27T19:20:04;10.43;;;4.60;;
48596;SDS011;34382;43.160;24.148;2022-08-27T19:23:11;11.73;;;4.40;;
48596;SDS011;34382;43.160;24.148;2022-08-27T19:24:44;15.57;;;5.50;;
48596;SDS011;34382;43.160;24.148;2022-08-27T19:26:18;12.65;;;5.05;;
48596;SDS011;34382;43.160;24.148;2022-08-27T19:36:14;11.15;;;5.05;;
48596;SDS011;34382;43.160;24.148;2022-08-27T19:37:48;10.63;;;4.47;;
48596;SDS011;34382;43.160;24.148;2022-08-27T19:40:57;10.25;;;4.90;;
48596;SDS011;34382;43.160;24.148;2022-08-27T19:42:30;11.45;;;4.63;;
48596;SDS011;34382;43.160;24.148;2022-08-27T19:44:03;14.63;;;5.03;;
48596;SDS011;34382;43.160;24.148;2022-08-27T19:45:36;12.18;;;5.13;;
48596;SDS011;34382;43.160;24.148;2022-08-27T19:47:11;11.30;;;4.90;;
48596;SDS011;34382;43.160;24.148;2022-08-27T19:48:45;12.02;;;5.20;;
48596;SDS011;34382;43.160;24.148;2022-08-27T19:53:34;11.07;;;4.70;;